Blackford, Kentucky
Current Conditions -  °F | °C
As of 2:55 AM on Friday 24 Oct 2014 (Local Time) from K5M9 Reporting Station
Scattered Clouds Scattered Clouds  
Wind Chill: 42°   Ceiling: Unl
Heat Index: 42°   Visibility: 7mi
Dew Point: 42°   Wind: 0mph
Humidity: 99%   Direction: NA
Pressure: 30.12"   Gusts: NA
Location:  37.45°N, 87.94°W
Report Text: K5M9 240755Z AUTO 00000KT 7SM SCT046 SCT110 06/05 A3012 RMK AO2 T00560054
Loading
Personal Weather Stations






























Interactive Weather Map
Tropical Storm Tracking
New forecast layout! Learn more

10-Day Weather Forecast

Advertisements
Track Severe Weather on mobile